Time;durP1;ratioP1;P1;durP2;ratioP2;P2;SDS_P1;SDS_P2;PMS_P1;PMS_P2;Temp;Humidity;BMP_temperature;BMP_pressure;BME280_temperature;BME280_humidity;BME280_pressure;Samples;Min_cycle;Max_cycle;Signal;HPM_P1;HPM_P2
2024/04/10 00:01:06;;;;;;;3.63;1.20;;;;;;;17.93;56.96;101733.03;11123395;26;20038;-64
2024/04/10 00:06:08;;;;;;;4.10;1.83;;;;;;;17.92;56.28;101748.34;11089383;26;20340;-64
2024/04/10 00:11:08;;;;;;;3.83;1.23;;;;;;;17.90;57.15;101742.44;11118487;26;19997;-63
2024/04/10 00:16:08;;;;;;;6.10;1.70;;;;;;;17.90;56.83;101752.38;11120079;26;20000;-64
2024/04/10 00:21:09;;;;;;;4.05;2.22;;;;;;;17.90;56.80;101757.72;11121072;26;20011;-64
2024/04/10 00:26:09;;;;;;;6.53;2.93;;;;;;;17.88;56.52;101762.53;11119944;26;20000;-63
2024/04/10 00:31:09;;;;;;;4.60;1.67;;;;;;;17.87;56.85;101775.16;11121321;26;20694;-63
2024/04/10 00:36:10;;;;;;;3.90;1.90;;;;;;;17.87;56.49;101785.06;11121091;26;20223;-64
2024/04/10 00:41:11;;;;;;;6.22;2.03;;;;;;;17.86;56.52;101802.25;11104908;26;20764;-64
2024/04/10 00:46:15;;;;;;;7.60;2.53;;;;;;;17.85;56.44;101812.16;11127139;26;20008;-64
2024/04/10 00:51:18;;;;;;;2.80;1.52;;;;;;;17.85;56.44;101816.72;11127573;26;20223;-64
2024/04/10 00:56:18;;;;;;;3.95;2.10;;;;;;;17.83;56.70;101825.03;11126603;26;20028;-64
2024/04/10 01:01:19;;;;;;;5.28;1.77;;;;;;;17.81;56.47;101828.00;11126991;26;20008;-64
2024/04/10 01:06:19;;;;;;;5.05;2.20;;;;;;;17.81;56.70;101838.72;11126112;26;20012;-63
2024/04/10 01:11:20;;;;;;;3.53;1.42;;;;;;;17.80;55.99;101853.22;11117753;26;20004;-64
2024/04/10 01:16:20;;;;;;;5.80;2.08;;;;;;;17.80;56.54;101865.81;11125758;26;20015;-63
2024/04/10 01:21:20;;;;;;;3.28;1.40;;;;;;;17.78;56.04;101871.44;11128071;26;20012;-64
2024/04/10 01:26:20;;;;;;;4.07;1.60;;;;;;;17.78;56.12;101884.88;11125459;26;20024;-64
2024/04/10 01:31:21;;;;;;;5.77;1.83;;;;;;;17.77;56.61;101880.56;11096562;26;20409;-64
2024/04/10 01:36:21;;;;;;;4.40;1.70;;;;;;;17.74;56.46;101883.75;11126633;26;20234;-64
2024/04/10 01:41:22;;;;;;;5.65;1.70;;;;;;;17.75;56.44;101881.88;11126472;26;20540;-64
2024/04/10 01:46:22;;;;;;;1.93;1.07;;;;;;;17.73;56.63;101884.81;11125140;26;20004;-65
2024/04/10 01:51:22;;;;;;;5.17;2.97;;;;;;;17.72;56.50;101898.50;11124972;26;20218;-64
2024/04/10 01:56:23;;;;;;;7.00;1.80;;;;;;;17.71;56.50;101913.78;11123956;26;20257;-64
2024/04/10 02:01:23;;;;;;;3.33;1.30;;;;;;;17.71;56.46;101918.34;11089923;26;20226;-63
2024/04/10 02:06:23;;;;;;;5.70;1.87;;;;;;;17.70;56.35;101922.09;11095555;26;20714;-63
2024/04/10 02:11:26;;;;;;;4.45;1.63;;;;;;;17.68;56.83;101925.00;11116603;26;20346;-63
2024/04/10 02:16:27;;;;;;;3.83;1.60;;;;;;;17.68;56.51;101926.88;11123729;26;20044;-64
2024/04/10 02:21:28;;;;;;;8.07;1.92;;;;;;;17.67;56.57;101927.97;11124793;26;20000;-64
2024/04/10 02:26:29;;;;;;;6.15;1.90;;;;;;;17.65;56.47;101941.63;11125063;26;20076;-64
2024/04/10 02:31:29;;;;;;;4.27;1.40;;;;;;;17.66;56.79;101947.81;11124620;26;20000;-64
2024/04/10 02:36:29;;;;;;;5.27;1.73;;;;;;;17.65;56.86;101947.00;11122942;26;20893;-63
2024/04/10 02:41:29;;;;;;;2.80;1.33;;;;;;;17.65;56.34;101967.66;11123779;26;20219;-63
2024/04/10 02:46:30;;;;;;;5.33;1.73;;;;;;;17.63;56.73;101973.25;11123219;26;20000;-64
2024/04/10 02:51:30;;;;;;;4.10;2.03;;;;;;;17.62;56.96;101985.03;11123689;26;20828;-64
2024/04/10 02:56:30;;;;;;;4.80;1.60;;;;;;;17.61;56.48;101986.13;11122952;26;20330;-64
2024/04/10 03:01:31;;;;;;;3.60;1.60;;;;;;;17.62;56.81;102008.38;11121501;26;20230;-64
2024/04/10 03:06:32;;;;;;;3.47;1.03;;;;;;;17.59;56.40;102016.94;11119873;26;20254;-64
2024/04/10 03:11:32;;;;;;;4.13;1.60;;;;;;;17.60;56.34;102018.56;11121014;26;20267;-63
2024/04/10 03:16:33;;;;;;;7.83;2.00;;;;;;;17.59;57.01;102033.03;11119705;26;20340;-64
2024/04/10 03:21:33;;;;;;;6.45;1.70;;;;;;;17.59;57.06;102043.75;11121015;26;20333;-64
2024/04/10 03:26:33;;;;;;;3.43;1.67;;;;;;;17.59;56.65;102046.44;11121387;26;20432;-64
2024/04/10 03:31:33;;;;;;;5.65;2.10;;;;;;;17.57;56.50;102057.44;11120430;26;20306;-64
2024/04/10 03:36:34;;;;;;;5.53;2.20;;;;;;;17.56;56.71;102063.06;11121161;26;20000;-62
2024/04/10 03:41:34;;;;;;;6.18;2.38;;;;;;;17.55;56.79;102062.25;11129861;26;20546;-61
2024/04/10 03:46:35;;;;;;;4.53;1.33;;;;;;;17.62;57.11;102080.78;11143535;26;20008;-60
2024/04/10 03:51:35;;;;;;;4.97;1.80;;;;;;;17.61;56.78;102088.03;11122228;26;20245;-62
2024/04/10 03:56:35;;;;;;;4.20;1.47;;;;;;;17.62;57.29;102099.56;11145612;26;20032;-61
2024/04/10 04:01:36;;;;;;;5.37;1.70;;;;;;;17.61;57.47;102106.81;11153569;26;20265;-61
2024/04/10 04:06:36;;;;;;;4.97;1.57;;;;;;;17.63;57.51;102109.22;11135193;26;20269;-61
2024/04/10 04:11:37;;;;;;;5.27;1.60;;;;;;;17.64;56.66;102118.88;11111003;26;20227;-62
2024/04/10 04:16:38;;;;;;;6.75;2.40;;;;;;;17.61;57.02;102128.25;11127443;26;20274;-62
2024/04/10 04:21:38;;;;;;;6.00;2.15;;;;;;;17.58;56.84;102136.00;11106841;26;19996;-62
2024/04/10 04:26:39;;;;;;;3.67;2.05;;;;;;;17.56;57.25;102148.88;11126653;26;20103;-62
2024/04/10 04:31:39;;;;;;;3.75;1.67;;;;;;;17.54;57.25;102158.00;11125689;26;20008;-62
2024/04/10 04:36:39;;;;;;;4.63;1.60;;;;;;;17.53;56.93;102168.97;11101242;26;20007;-62
2024/04/10 04:41:40;;;;;;;4.47;2.03;;;;;;;17.52;56.81;102178.03;11125135;26;20318;-62
2024/04/10 04:46:41;;;;;;;5.82;2.17;;;;;;;17.50;57.07;102186.34;11122293;26;20218;-62
2024/04/10 04:51:41;;;;;;;4.53;1.70;;;;;;;17.49;56.81;102192.78;11114549;26;20007;-62
2024/04/10 04:56:41;;;;;;;5.30;1.80;;;;;;;17.49;57.17;102208.06;11127502;26;20496;-62
2024/04/10 05:01:42;;;;;;;3.57;1.90;;;;;;;17.50;56.76;102223.09;11125649;26;20255;-62
2024/04/10 05:06:42;;;;;;;4.93;1.70;;;;;;;17.50;57.45;102225.78;11128393;26;20278;-63
2024/04/10 05:11:43;;;;;;;6.55;1.60;;;;;;;17.56;57.34;102232.81;11126911;26;20226;-61
2024/04/10 05:16:43;;;;;;;6.87;2.47;;;;;;;17.58;57.56;102240.63;11125176;26;20000;-61
2024/04/10 05:21:43;;;;;;;6.25;1.92;;;;;;;17.52;57.04;102239.72;11106204;26;20234;-62
2024/04/10 05:26:43;;;;;;;8.93;1.90;;;;;;;17.62;56.95;102244.41;11124177;26;19992;-61
2024/04/10 05:31:44;;;;;;;11.23;3.00;;;;;;;17.71;57.13;102254.47;11124595;26;20694;-61
2024/04/10 05:36:44;;;;;;;6.70;2.50;;;;;;;17.73;57.46;102264.94;11125228;26;20215;-62
2024/04/10 05:41:45;;;;;;;13.02;2.42;;;;;;;17.76;57.39;102285.94;11085253;26;20816;-60
2024/04/10 05:46:46;;;;;;;12.13;2.70;;;;;;;17.75;57.43;102301.19;11126537;26;20016;-61
2024/04/10 05:51:46;;;;;;;41.97;4.88;;;;;;;17.75;57.83;102317.28;11125934;26;19996;-61
2024/04/10 05:56:46;;;;;;;22.27;4.47;;;;;;;17.72;57.79;102319.66;11124587;26;20037;-62
2024/04/10 06:01:47;;;;;;;22.13;4.13;;;;;;;17.64;57.55;102328.09;11123785;26;20031;-62
2024/04/10 06:06:47;;;;;;;12.10;2.97;;;;;;;17.58;58.08;102335.31;11126442;26;20259;-60
2024/04/10 06:11:47;;;;;;;19.37;4.13;;;;;;;17.54;58.08;102344.91;11112889;26;20264;-61
2024/04/10 06:16:48;;;;;;;15.47;3.83;;;;;;;17.51;57.86;102359.59;11094791;26;20222;-63
2024/04/10 06:21:48;;;;;;;14.60;3.00;;;;;;;17.48;57.71;102364.66;11124263;26;20222;-63
2024/04/10 06:26:50;;;;;;;14.70;3.73;;;;;;;17.46;57.41;102377.50;11123801;26;20066;-63
2024/04/10 06:31:50;;;;;;;10.70;3.50;;;;;;;17.44;57.80;102387.69;11124511;26;20630;-63
2024/04/10 06:36:50;;;;;;;10.40;3.13;;;;;;;17.43;57.73;102396.78;11123587;26;20042;-63
2024/04/10 06:41:51;;;;;;;14.20;3.60;;;;;;;17.41;57.63;102412.31;11121514;26;20065;-65
2024/04/10 06:46:51;;;;;;;12.67;3.80;;;;;;;17.40;57.07;102410.66;11123998;26;21033;-63
2024/04/10 06:51:51;;;;;;;11.23;3.33;;;;;;;17.40;57.79;102418.69;11121239;26;20223;-63
2024/04/10 06:56:52;;;;;;;12.83;3.53;;;;;;;17.44;57.75;102422.53;11122483;26;20210;-63
2024/04/10 07:01:52;;;;;;;14.90;3.83;;;;;;;17.47;58.05;102432.75;11123895;26;21200;-63
2024/04/10 07:06:52;;;;;;;15.17;3.97;;;;;;;17.43;57.70;102445.88;11122687;26;20004;-62
2024/04/10 07:11:52;;;;;;;10.87;3.63;;;;;;;17.43;57.43;102448.53;11092494;26;20242;-62
2024/04/10 07:16:53;;;;;;;9.13;2.53;;;;;;;17.41;57.86;102444.50;11122119;26;20908;-60
2024/04/10 07:21:53;;;;;;;8.97;2.70;;;;;;;17.42;57.77;102462.19;11109998;26;20222;-63
2024/04/10 07:26:53;;;;;;;16.07;3.33;;;;;;;17.39;57.38;102452.75;11123164;26;20574;-63
2024/04/10 07:31:54;;;;;;;10.63;2.67;;;;;;;17.40;57.45;102465.09;11121021;26;20222;-63
2024/04/10 07:36:54;;;;;;;18.55;4.88;;;;;;;17.40;57.70;102470.47;11121937;26;20703;-63
2024/04/10 07:41:54;;;;;;;11.47;2.53;;;;;;;17.38;57.95;102477.13;11122634;26;20011;-63
2024/04/10 07:46:56;;;;;;;7.87;1.90;;;;;;;17.37;57.75;102481.69;11121836;26;20294;-62
2024/04/10 07:51:56;;;;;;;8.63;2.80;;;;;;;17.35;57.43;102481.13;11126216;26;20271;-62
2024/04/10 07:56:56;;;;;;;7.20;2.80;;;;;;;17.32;57.94;102489.66;11098935;26;20009;-62
2024/04/10 08:01:57;;;;;;;11.23;2.80;;;;;;;17.30;57.54;102482.94;11129602;26;20223;-62
2024/04/10 08:06:57;;;;;;;6.03;2.50;;;;;;;17.32;57.61;102495.03;11129488;26;20599;-63
2024/04/10 08:11:57;;;;;;;8.73;2.37;;;;;;;17.30;58.09;102499.81;11127146;26;20226;-63
2024/04/10 08:16:57;;;;;;;9.20;2.90;;;;;;;17.31;57.26;102511.34;11127426;26;20573;-63
2024/04/10 08:21:58;;;;;;;8.40;3.30;;;;;;;17.30;57.31;102520.47;11128541;26;20219;-62
2024/04/10 08:27:02;;;;;;;13.13;2.60;;;;;;;17.30;57.70;102512.41;11128827;26;20382;-63
2024/04/10 08:32:02;;;;;;;7.38;2.65;;;;;;;17.34;57.36;102517.03;11128609;26;20000;-63
2024/04/10 08:37:03;;;;;;;5.60;2.17;;;;;;;17.31;57.47;102538.16;11103857;26;20004;-63
2024/04/10 08:42:04;;;;;;;7.90;2.25;;;;;;;17.30;57.45;102534.69;11126029;26;20016;-63
2024/04/10 08:47:05;;;;;;;7.55;2.78;;;;;;;17.36;56.71;102543.59;11123566;26;20752;-63
2024/04/10 08:52:08;;;;;;;9.02;2.38;;;;;;;17.37;57.09;102546.03;11127836;26;20012;-63
2024/04/10 08:57:08;;;;;;;10.07;2.42;;;;;;;17.40;57.14;102550.91;11096858;26;20000;-62
2024/04/10 09:02:11;;;;;;;6.10;2.73;;;;;;;17.43;57.18;102565.72;11124807;26;20019;-62
2024/04/10 09:07:11;;;;;;;6.20;2.42;;;;;;;17.42;57.22;102562.22;11125888;26;20227;-62
2024/04/10 09:12:21;;;;;;;3.90;1.98;;;;;;;17.40;57.57;102603.72;11125853;26;20888;-63
2024/04/10 09:17:22;;;;;;;5.82;2.20;;;;;;;17.35;56.87;102596.41;11084314;26;20459;-62
2024/04/10 09:22:22;;;;;;;4.97;2.42;;;;;;;17.36;57.17;102592.69;11124875;26;20001;-63
2024/04/10 09:27:22;;;;;;;5.53;2.63;;;;;;;17.34;57.56;102605.50;11127647;26;20000;-63
2024/04/10 09:32:23;;;;;;;3.83;1.70;;;;;;;17.31;57.68;102606.00;11089258;26;20008;-63
2024/04/10 09:37:23;;;;;;;6.95;2.00;;;;;;;17.32;57.36;102609.50;11101751;26;20329;-63
2024/04/10 09:42:27;;;;;;;5.50;1.88;;;;;;;17.33;57.39;102606.56;11072450;26;20077;-63
2024/04/10 09:47:29;;;;;;;5.65;1.73;;;;;;;17.34;57.77;102605.50;11124451;26;20008;-63
2024/04/10 09:52:30;;;;;;;7.30;1.80;;;;;;;17.42;57.69;102607.00;11076624;26;20317;-63
2024/04/10 09:57:31;;;;;;;4.47;2.00;;;;;;;17.43;57.70;102612.13;11124530;26;20001;-62
2024/04/10 10:02:31;;;;;;;3.55;2.10;;;;;;;17.46;56.95;102602.78;11123001;26;20004;-63
2024/04/10 10:07:32;;;;;;;5.95;2.28;;;;;;;17.50;57.35;102610.09;11126111;26;20070;-62
2024/04/10 10:12:33;;;;;;;6.13;1.92;;;;;;;17.57;57.35;102603.75;11112715;26;20020;-63
2024/04/10 10:17:33;;;;;;;4.35;2.25;;;;;;;17.57;56.98;102620.66;11124455;26;20004;-62
2024/04/10 10:22:33;;;;;;;5.93;1.95;;;;;;;17.62;56.37;102625.31;11124593;26;20440;-62
2024/04/10 10:27:33;;;;;;;6.67;2.07;;;;;;;17.68;56.67;102630.53;11124164;26;20079;-62
2024/04/10 10:32:34;;;;;;;15.17;2.60;;;;;;;17.73;55.99;102616.41;11124595;26;20226;-63
2024/04/10 10:37:35;;;;;;;3.40;1.27;;;;;;;17.71;56.14;102622.00;11097751;26;20333;-64
2024/04/10 10:42:35;;;;;;;5.35;1.70;;;;;;;17.76;56.05;102632.03;11122896;26;20338;-64
2024/04/10 10:47:39;;;;;;;5.18;1.75;;;;;;;17.74;56.26;102644.84;11124586;26;19992;-64
2024/04/10 10:52:40;;;;;;;5.43;1.70;;;;;;;17.77;56.39;102644.38;11123536;26;20003;-63
2024/04/10 10:57:40;;;;;;;4.90;1.80;;;;;;;17.81;56.49;102654.38;11124511;26;20011;-64
2024/04/10 11:02:44;;;;;;;5.60;1.88;;;;;;;17.79;56.30;102655.69;11122980;26;20011;-64
2024/04/10 11:07:55;;;;;;;4.82;1.70;;;;;;;17.77;56.65;102652.44;11123751;26;20012;-64
2024/04/10 11:13:08;;;;;;;5.38;2.00;;;;;;;17.87;55.84;102651.78;11113146;26;20047;-64
2024/04/10 11:18:09;;;;;;;5.28;1.75;;;;;;;17.92;55.60;102651.88;11124560;26;20901;-64
2024/04/10 11:23:09;;;;;;;5.63;1.25;;;;;;;17.86;56.27;102650.97;11120289;26;19996;-65
2024/04/10 11:28:10;;;;;;;4.55;1.98;;;;;;;17.95;55.84;102644.13;11088670;26;20010;-65
2024/04/10 11:33:11;;;;;;;3.85;1.35;;;;;;;17.98;55.36;102643.63;11122309;26;20070;-64
2024/04/10 11:38:11;;;;;;;2.47;1.38;;;;;;;17.91;56.07;102669.03;11079011;26;20007;-65
2024/04/10 11:43:12;;;;;;;5.07;1.60;;;;;;;17.85;56.05;102670.81;11121738;26;20011;-65
2024/04/10 11:48:12;;;;;;;3.30;1.30;;;;;;;17.84;56.14;102669.19;11121833;26;20002;-64
2024/04/10 11:53:12;;;;;;;4.17;1.30;;;;;;;17.82;56.09;102673.97;11083859;26;20266;-63
2024/04/10 11:58:13;;;;;;;5.97;1.63;;;;;;;17.90;55.62;102670.09;11121722;26;20267;-61
2024/04/10 12:03:13;;;;;;;3.40;1.50;;;;;;;17.95;56.16;102681.72;11122402;26;20070;-62
2024/04/10 12:08:13;;;;;;;5.80;2.37;;;;;;;18.03;55.37;102667.91;11120282;26;20329;-62
2024/04/10 12:13:14;;;;;;;6.43;2.90;;;;;;;18.11;54.87;102674.72;11120292;26;20550;-62
2024/04/10 12:18:14;;;;;;;4.63;1.50;;;;;;;18.15;55.29;102675.88;11121296;26;20223;-62
2024/04/10 12:23:14;;;;;;;7.50;1.20;;;;;;;18.19;54.67;102679.69;11119496;26;20279;-62
2024/04/10 12:28:15;;;;;;;4.93;1.10;;;;;;;18.23;54.42;102677.31;11073029;26;20790;-62
2024/04/10 12:33:15;;;;;;;2.92;1.10;;;;;;;18.24;54.72;102687.84;11119305;26;20222;-62
2024/04/10 12:38:16;;;;;;;3.88;1.30;;;;;;;18.29;54.33;102684.41;11101064;26;20409;-62
2024/04/10 12:43:16;;;;;;;4.87;2.13;;;;;;;18.32;54.13;102689.28;11086121;26;20004;-62
2024/04/10 12:48:16;;;;;;;2.57;1.20;;;;;;;18.33;54.56;102689.03;11126444;26;20226;-63
2024/04/10 12:53:17;;;;;;;2.25;1.10;;;;;;;18.38;54.45;102686.44;11127784;26;20347;-62
2024/04/10 12:58:17;;;;;;;4.03;1.17;;;;;;;18.42;54.14;102679.50;11128082;26;20024;-62
2024/04/10 13:03:22;;;;;;;2.58;1.00;;;;;;;18.45;54.08;102680.06;11093535;26;20307;-62
2024/04/10 13:08:23;;;;;;;5.38;2.22;;;;;;;18.48;54.25;102685.78;11127604;26;19996;-62
2024/04/10 13:13:23;;;;;;;3.22;1.15;;;;;;;18.49;53.76;102689.28;11116647;26;20000;-63
2024/04/10 13:18:23;;;;;;;2.77;1.67;;;;;;;18.50;54.43;102689.03;11096495;26;20056;-62
2024/04/10 13:23:24;;;;;;;3.60;1.00;;;;;;;18.52;54.20;102688.78;11125359;26;20709;-62
2024/04/10 13:28:26;;;;;;;2.17;0.80;;;;;;;18.53;53.70;102699.25;11127152;26;20010;-63
2024/04/10 13:33:26;;;;;;;3.97;1.58;;;;;;;18.53;53.94;102693.88;11125319;26;20073;-62
2024/04/10 13:38:26;;;;;;;2.80;1.13;;;;;;;18.60;54.23;102707.16;11085580;26;20042;-62
2024/04/10 13:43:28;;;;;;;2.35;0.90;;;;;;;18.61;53.44;102706.09;11116460;26;20239;-63
2024/04/10 13:48:28;;;;;;;2.30;1.02;;;;;;;18.62;53.47;102705.03;11093917;26;20428;-63
2024/04/10 13:53:28;;;;;;;4.30;1.00;;;;;;;18.64;53.52;102711.00;11122743;26;19993;-64
2024/04/10 13:58:29;;;;;;;8.13;1.40;;;;;;;18.66;53.40;102703.50;11122574;26;20342;-64
2024/04/10 14:03:29;;;;;;;5.03;1.23;;;;;;;18.65;53.11;102708.06;11125802;26;19997;-63
2024/04/10 14:08:30;;;;;;;7.43;1.58;;;;;;;18.63;53.19;102698.59;11149797;26;20229;-62
2024/04/10 14:13:34;;;;;;;6.82;1.55;;;;;;;18.66;53.80;102688.19;11132325;26;20000;-62
2024/04/10 14:18:34;;;;;;;5.05;1.23;;;;;;;18.64;53.43;102706.44;11146350;26;20011;-62
2024/04/10 14:23:35;;;;;;;12.60;2.17;;;;;;;18.62;53.25;102696.97;11162295;26;20008;-62
2024/04/10 14:28:36;;;;;;;6.90;1.67;;;;;;;18.63;53.06;102699.41;11123198;26;20000;-62
2024/04/10 14:33:41;;;;;;;5.60;1.73;;;;;;;18.65;53.63;102693.81;11157302;26;20028;-62
2024/04/10 14:38:41;;;;;;;5.10;1.42;;;;;;;18.62;52.66;102699.66;11110224;26;20557;-63
2024/04/10 14:43:42;;;;;;;4.70;1.33;;;;;;;18.62;52.87;102694.28;11116906;26;19992;-64
2024/04/10 14:48:43;;;;;;;5.95;1.33;;;;;;;18.58;52.38;102691.25;11073916;26;20686;-62
2024/04/10 14:53:43;;;;;;;3.45;1.13;;;;;;;18.53;51.98;102687.72;11099135;26;20070;-62
2024/04/10 14:58:43;;;;;;;8.50;1.52;;;;;;;18.53;51.55;102685.84;11143994;26;20009;-63
2024/04/10 15:03:44;;;;;;;4.77;1.43;;;;;;;18.53;51.91;102677.78;11078173;26;20000;-63
2024/04/10 15:08:46;;;;;;;5.60;1.98;;;;;;;18.53;51.50;102677.78;11141702;26;20226;-62
2024/04/10 15:13:46;;;;;;;14.32;6.93;;;;;;;18.51;51.39;102679.09;11143836;26;20000;-63
2024/04/10 15:18:47;;;;;;;12.47;4.57;;;;;;;18.41;47.77;102683.25;11123982;26;20002;-63
2024/04/10 15:23:48;;;;;;;14.70;5.07;;;;;;;18.48;47.28;102668.84;11123267;26;20262;-63
2024/04/10 15:30:10;;;;;;;10.82;4.10;;;;;;;18.51;47.64;102681.78;11385308;25;20995;-63
2024/04/10 15:35:11;;;;;;;18.13;5.32;;;;;;;18.48;48.37;102674.22;11292878;26;19998;-64
2024/04/10 15:40:11;;;;;;;18.23;6.00;;;;;;;18.49;49.50;102670.47;11309053;26;20474;-60
2024/04/10 15:45:11;;;;;;;14.80;5.40;;;;;;;18.45;49.64;102678.19;11345330;26;19989;-63
2024/04/10 15:50:11;;;;;;;24.83;5.97;;;;;;;18.44;50.33;102681.94;11343431;26;20669;-63
2024/04/10 15:55:12;;;;;;;25.80;6.30;;;;;;;18.44;51.50;102683.81;11303435;25;20216;-63
2024/04/10 16:00:12;;;;;;;22.07;6.53;;;;;;;18.40;51.42;102678.13;11268377;26;20263;-63
2024/04/10 16:05:13;;;;;;;26.23;6.25;;;;;;;18.38;51.87;102685.63;11281720;26;20605;-63
2024/04/10 16:10:13;;;;;;;21.58;5.30;;;;;;;18.38;51.75;102685.63;11258276;26;20005;-63
2024/04/10 16:15:13;;;;;;;15.17;4.40;;;;;;;18.40;52.13;102668.19;11259238;26;19999;-62
2024/04/10 16:20:14;;;;;;;19.30;4.80;;;;;;;18.39;51.72;102657.69;11257273;26;20245;-63
2024/04/10 16:25:14;;;;;;;11.90;3.50;;;;;;;18.36;51.82;102666.25;11246478;26;20006;-63
2024/04/10 16:30:22;;;;;;;23.20;3.93;;;;;;;18.33;52.09;102656.78;11291279;26;20227;-62
2024/04/10 16:35:26;;;;;;;10.97;4.00;;;;;;;18.31;51.59;102668.84;11296397;26;20273;-62
2024/04/10 16:40:27;;;;;;;15.27;3.45;;;;;;;18.28;51.49;102662.09;11243981;26;20400;-62
2024/04/10 16:45:27;;;;;;;6.47;2.38;;;;;;;18.28;51.16;102666.66;11262197;26;20007;-62
2024/04/10 16:50:28;;;;;;;7.03;2.15;;;;;;;18.24;51.36;102670.91;11241455;26;20010;-62
2024/04/10 16:55:30;;;;;;;8.60;2.93;;;;;;;18.27;51.28;102667.72;11238078;26;20000;-61
2024/04/10 17:00:31;;;;;;;6.20;1.90;;;;;;;18.27;51.79;102670.41;11220149;26;20239;-61
2024/04/10 17:05:31;;;;;;;10.37;2.47;;;;;;;18.25;51.16;102675.22;11222727;26;19996;-60
2024/04/10 17:10:35;;;;;;;7.03;2.47;;;;;;;18.41;51.99;102669.81;11240583;26;20220;-61
2024/04/10 17:15:36;;;;;;;11.60;2.22;;;;;;;18.59;51.58;102659.88;11227550;26;20005;-59
2024/04/10 17:25:56;;;;;;;7.10;2.65;;;;;;;18.43;53.34;102672.25;11266512;26;20710;-58
2024/04/10 17:31:00;;;;;;;10.20;2.70;;;;;;;18.44;54.06;102687.31;11271343;26;19994;-59
2024/04/10 17:36:02;;;;;;;9.30;2.28;;;;;;;18.49;53.86;102679.34;11254560;26;20740;-59
2024/04/10 17:41:05;;;;;;;10.55;2.75;;;;;;;18.46;53.64;102692.44;11274276;26;20014;-61
2024/04/10 17:46:06;;;;;;;13.13;2.35;;;;;;;18.38;53.64;102691.81;11226102;26;20038;-61
2024/04/10 17:51:15;;;;;;;6.80;1.92;;;;;;;18.34;54.11;102687.97;11272084;26;20315;-61
2024/04/10 17:56:17;;;;;;;9.45;2.00;;;;;;;18.33;53.97;102696.28;11261576;26;19998;-61
2024/04/10 18:01:17;;;;;;;8.15;2.20;;;;;;;18.32;54.12;102710.75;11263735;26;20015;-61
2024/04/10 18:06:18;;;;;;;7.82;1.95;;;;;;;18.31;54.57;102704.56;11274003;26;20004;-61
2024/04/10 18:11:18;;;;;;;6.40;2.05;;;;;;;18.31;54.15;102696.50;11257188;26;19999;-61
2024/04/10 18:16:18;;;;;;;5.70;2.10;;;;;;;18.30;54.13;102673.41;11273618;26;19994;-61
2024/04/10 18:21:18;;;;;;;8.43;1.73;;;;;;;18.31;54.08;102658.91;11306111;26;20228;-60
2024/04/10 18:26:19;;;;;;;7.47;1.67;;;;;;;18.32;54.08;102641.75;11213875;26;20034;-60
2024/04/10 18:31:19;;;;;;;6.13;2.10;;;;;;;18.25;53.19;102651.06;11258878;26;20263;-60
2024/04/10 18:36:20;;;;;;;5.70;2.25;;;;;;;18.24;53.29;102673.59;11227944;26;19995;-59
2024/04/10 18:41:20;;;;;;;7.25;2.50;;;;;;;18.23;53.34;102664.72;11237676;26;20013;-59
2024/04/10 18:46:24;;;;;;;6.30;2.07;;;;;;;18.25;52.81;102667.16;11227647;26;20037;-59
2024/04/10 18:51:24;;;;;;;8.07;3.22;;;;;;;18.23;53.36;102683.53;11220051;26;20228;-59
2024/04/10 18:56:25;;;;;;;8.70;2.00;;;;;;;18.23;52.95;102699.63;11251744;26;20002;-59
2024/04/10 19:01:26;;;;;;;6.17;2.03;;;;;;;18.23;53.66;102718.44;11263931;26;19995;-59
2024/04/10 19:06:26;;;;;;;5.18;1.70;;;;;;;18.22;53.28;102703.34;11269296;26;20216;-59
2024/04/10 19:11:26;;;;;;;10.45;2.20;;;;;;;18.23;53.66;102709.53;11247841;26;20060;-59
2024/04/10 19:16:27;;;;;;;7.47;2.00;;;;;;;18.41;58.13;102712.78;11221319;26;20024;-59
2024/04/10 19:21:27;;;;;;;6.00;1.70;;;;;;;18.50;57.76;102713.19;11230819;26;20010;-60
2024/04/10 19:26:27;;;;;;;5.30;1.57;;;;;;;18.54;57.52;102708.94;11244887;26;20233;-58
2024/04/10 19:31:28;;;;;;;4.15;1.33;;;;;;;18.54;56.96;102713.50;11235296;26;20263;-59
2024/04/10 19:36:28;;;;;;;5.60;1.50;;;;;;;18.53;57.27;102714.56;11228400;26;20323;-59
2024/04/10 19:41:29;;;;;;;6.10;1.70;;;;;;;18.51;56.87;102711.31;11254135;26;19999;-62
2024/04/10 19:46:29;;;;;;;7.67;2.07;;;;;;;18.50;57.18;102712.38;11232279;26;20217;-58
2024/04/10 19:51:30;;;;;;;4.63;1.35;;;;;;;18.45;56.31;102713.09;11217018;26;20253;-59
2024/04/10 19:56:30;;;;;;;3.53;1.77;;;;;;;18.43;56.59;102712.53;11246420;26;20035;-59
2024/04/10 20:01:31;;;;;;;4.73;1.47;;;;;;;18.40;56.15;102715.72;11254218;26;20739;-59
2024/04/10 20:06:32;;;;;;;6.57;1.70;;;;;;;18.38;56.06;102707.91;11271721;26;20261;-60
2024/04/10 20:11:32;;;;;;;5.30;1.60;;;;;;;18.37;56.74;102708.97;11258826;26;20014;-60
2024/04/10 20:16:32;;;;;;;5.68;2.42;;;;;;;18.35;56.33;102692.31;11275991;26;20072;-58
2024/04/10 20:21:33;;;;;;;4.07;1.63;;;;;;;18.33;56.25;102678.28;11253463;26;20514;-59
2024/04/10 20:26:33;;;;;;;4.53;1.77;;;;;;;18.32;56.49;102681.22;11276852;26;20257;-59
2024/04/10 20:31:34;;;;;;;4.88;1.63;;;;;;;18.30;55.90;102670.72;11311412;26;20800;-59
2024/04/10 20:36:34;;;;;;;4.87;1.70;;;;;;;18.29;56.14;102674.47;11277055;26;20007;-59
2024/04/10 20:41:36;;;;;;;3.43;1.63;;;;;;;18.28;55.75;102675.53;11275749;26;20224;-60
2024/04/10 20:46:37;;;;;;;2.38;1.10;;;;;;;18.28;55.81;102685.47;11265559;26;20212;-60
2024/04/10 20:51:37;;;;;;;5.63;1.83;;;;;;;18.28;55.75;102690.84;11275478;26;20002;-59
2024/04/10 20:56:37;;;;;;;3.03;1.47;;;;;;;18.27;55.06;102703.44;11269798;26;19995;-59
2024/04/10 21:01:37;;;;;;;3.65;1.33;;;;;;;18.27;55.09;102703.44;11275976;26;20329;-59
2024/04/10 22:15:09;;;;;;;4.38;1.50;;;;;;;18.14;54.79;102671.56;11272684;26;19995;-59
2024/04/10 22:25:29;;;;;;;3.10;1.30;;;;;;;18.10;54.29;102652.41;11348787;26;20478;-59
2024/04/10 22:30:29;;;;;;;3.20;1.30;;;;;;;18.10;54.69;102671.22;11347977;26;20009;-59
2024/04/10 22:35:29;;;;;;;2.70;1.60;;;;;;;18.09;54.67;102663.41;11285409;26;20790;-59
2024/04/10 22:40:30;;;;;;;3.93;2.00;;;;;;;18.09;54.69;102666.91;11273088;26;20228;-59
2024/04/10 22:45:30;;;;;;;4.30;1.48;;;;;;;18.09;54.61;102660.72;11272659;26;20921;-59
2024/04/10 22:50:31;;;;;;;3.63;1.10;;;;;;;18.08;54.00;102653.72;11272920;26;20070;-59
2024/04/10 22:55:31;;;;;;;4.20;1.60;;;;;;;18.08;54.50;102653.72;11247286;26;19995;-59
2024/04/10 23:00:32;;;;;;;3.37;1.43;;;;;;;18.07;54.40;102650.22;11272499;26;19999;-59
2024/04/10 23:05:33;;;;;;;3.97;1.30;;;;;;;18.04;53.62;102664.16;11272193;26;20334;-59
2024/04/10 23:10:33;;;;;;;2.13;0.90;;;;;;;18.03;53.82;102675.13;11260096;26;20010;-59
2024/04/10 23:15:33;;;;;;;4.00;1.20;;;;;;;18.02;53.39;102676.19;11271643;26;20269;-59
2024/04/10 23:20:34;;;;;;;4.33;1.40;;;;;;;18.02;53.75;102681.56;11258001;26;20684;-59
2024/04/10 23:25:35;;;;;;;3.53;1.50;;;;;;;18.00;53.42;102668.41;11271410;26;20221;-59
2024/04/10 23:30:35;;;;;;;2.40;1.20;;;;;;;18.00;53.73;102652.28;11271779;26;20221;-58
2024/04/10 23:35:35;;;;;;;2.63;1.07;;;;;;;18.00;53.36;102660.34;11274703;26;20011;-59
2024/04/10 23:40:39;;;;;;;2.25;1.70;;;;;;;18.01;53.87;102669.22;11271376;26;20224;-59
2024/04/10 23:45:39;;;;;;;3.50;1.50;;;;;;;17.99;53.40;102679.34;11268324;26;20341;-59
2024/04/10 23:50:40;;;;;;;2.90;1.50;;;;;;;17.99;53.54;102677.47;11278057;26;20009;-59
2024/04/10 23:55:40;;;;;;;1.60;0.97;;;;;;;17.97;53.30;102689.50;11278051;26;20735;-60
